Time;durP1;ratioP1;P1;durP2;ratioP2;P2;SDS_P1;SDS_P2;PMS_P1;PMS_P2;Temp;Humidity;BMP_temperature;BMP_pressure;BME280_temperature;BME280_humidity;BME280_pressure;Samples;Min_cycle;Max_cycle;Signal;HPM_P1;HPM_P2
2023/07/11 00:00:14;;;;;;;4.28;1.67;;;;;;;-145.63;48.42;39043.81;5063315;28;20088;-68
2023/07/11 00:02:42;;;;;;;3.17;1.83;;;;;;;-145.63;48.54;39020.34;5082550;28;20088;-64
2023/07/11 00:05:08;;;;;;;4.95;1.85;;;;;;;-145.63;48.35;39059.44;5065874;28;20260;-66
2023/07/11 00:07:34;;;;;;;1.70;1.60;;;;;;;-145.63;48.56;39053.59;5078309;28;20051;-66
2023/07/11 00:09:59;;;;;;;2.85;1.60;;;;;;;-145.63;48.68;39122.03;5078438;28;20049;-67
2023/07/11 00:12:28;;;;;;;2.33;1.63;;;;;;;-145.63;48.35;39080.97;5066002;28;20321;-67
2023/07/11 00:14:58;;;;;;;2.92;1.75;;;;;;;-145.63;48.25;39063.34;5065963;28;20082;-68
2023/07/11 00:17:24;;;;;;;1.67;1.55;;;;;;;-145.63;48.64;39108.34;5066035;28;20060;-66
2023/07/11 00:19:54;;;;;;;1.90;1.70;;;;;;;-145.63;48.93;39110.28;5064639;28;20025;-66
2023/07/11 00:22:21;;;;;;;2.58;1.55;;;;;;;-145.63;48.94;39114.22;5076389;28;20026;-68
2023/07/11 00:24:48;;;;;;;2.65;1.70;;;;;;;-145.63;49.19;39094.66;5079921;28;20025;-67
2023/07/11 00:27:16;;;;;;;2.00;1.40;;;;;;;-145.63;48.81;39075.09;5065613;28;20021;-66
2023/07/11 00:29:42;;;;;;;2.47;1.63;;;;;;;-145.63;48.62;39106.38;5065905;28;20037;-67
2023/07/11 00:32:08;;;;;;;4.80;1.88;;;;;;;-145.63;48.90;39106.38;5082987;28;20025;-67
2023/07/11 00:34:34;;;;;;;3.90;1.52;;;;;;;-145.63;48.90;39110.28;5073078;28;20028;-66
2023/07/11 00:37:00;;;;;;;3.53;1.45;;;;;;;-145.63;48.80;38846.28;5065753;28;20028;-67
2023/07/11 00:39:32;;;;;;;5.30;1.50;;;;;;;-145.63;48.52;39098.56;5067179;28;20032;-67
2023/07/11 00:41:58;;;;;;;2.03;1.60;;;;;;;-145.63;49.09;39067.28;5066636;28;20238;-68
2023/07/11 00:44:24;;;;;;;2.80;1.80;;;;;;;-145.63;48.87;39096.59;5084648;28;20036;-68
2023/07/11 00:46:50;;;;;;;2.25;1.45;;;;;;;-145.63;48.63;39094.66;5070947;28;20033;-67
2023/07/11 00:49:22;;;;;;;2.15;1.60;;;;;;;-145.63;48.74;39086.81;5073832;28;20087;-68
2023/07/11 00:51:50;;;;;;;;;;;;;;;-145.63;48.63;39073.13;5080234;28;20088;-67
2023/07/11 00:54:19;;;;;;;3.30;1.50;;;;;;;-145.63;48.99;38946.03;5066615;28;19936;-66
2023/07/11 00:56:47;;;;;;;1.85;1.48;;;;;;;-145.63;49.02;38693.75;5085595;28;20028;-67
2023/07/11 00:59:16;;;;;;;1.63;1.52;;;;;;;-145.63;48.75;39069.22;5067706;28;20036;-67
2023/07/11 01:01:46;;;;;;;2.58;1.73;;;;;;;-145.63;48.67;39090.75;5084526;28;20064;-68
2023/07/11 01:04:14;;;;;;;2.10;1.52;;;;;;;-145.63;48.83;39118.13;5076144;28;20213;-67
2023/07/11 01:06:40;;;;;;;2.38;1.88;;;;;;;-145.63;48.99;39098.56;5069972;28;20039;-67
2023/07/11 01:09:06;;;;;;;2.92;1.42;;;;;;;-145.63;49.06;39118.13;5077242;28;20132;-67
2023/07/11 01:11:50;;;;;;;2.58;1.55;;;;;;;-145.63;49.01;39080.97;5064130;28;20255;-67
2023/07/11 01:14:15;;;;;;;4.20;1.65;;;;;;;-145.63;49.40;39301.94;5064965;28;20029;-67
2023/07/11 01:16:44;;;;;;;2.67;1.42;;;;;;;-145.63;48.94;39096.59;5077566;28;20062;-67
2023/07/11 01:19:10;;;;;;;3.10;1.58;;;;;;;-145.63;48.86;38871.72;5075983;28;20029;-67
2023/07/11 01:21:35;;;;;;;1.98;1.63;;;;;;;-145.63;49.08;39123.97;5064721;28;20032;-68
2023/07/11 01:24:01;;;;;;;3.25;1.50;;;;;;;-145.63;49.50;39137.69;5065005;28;20321;-66
2023/07/11 01:26:26;;;;;;;2.85;1.23;;;;;;;-145.63;48.88;39114.22;5082560;28;20342;-66
2023/07/11 01:28:52;;;;;;;5.03;1.80;;;;;;;-145.63;48.50;39102.47;5070169;28;20209;-67
2023/07/11 01:31:18;;;;;;;3.20;2.17;;;;;;;-145.63;48.71;39094.66;5074038;28;20313;-66
2023/07/11 01:33:43;;;;;;;11.35;5.88;;;;;;;-145.63;48.89;39102.47;5077405;28;20240;-66
2023/07/11 01:36:09;;;;;;;3.60;2.08;;;;;;;-145.63;48.72;39112.25;5069773;28;20025;-67
2023/07/11 01:38:34;;;;;;;3.20;2.20;;;;;;;-145.63;48.94;39120.06;5064167;28;20025;-68
2023/07/11 01:41:00;;;;;;;3.63;2.10;;;;;;;-145.63;48.68;39102.47;5069491;28;20033;-66
2023/07/11 01:43:26;;;;;;;3.67;2.00;;;;;;;-145.63;48.31;39090.75;5074685;28;20328;-66
2023/07/11 01:45:51;;;;;;;3.53;1.85;;;;;;;-145.63;48.79;39125.94;5078320;28;20029;-65
2023/07/11 01:48:17;;;;;;;2.88;1.77;;;;;;;-145.63;48.79;39123.97;5065302;28;20117;-66
2023/07/11 01:50:43;;;;;;;4.75;2.00;;;;;;;-145.63;48.84;39155.28;5084381;28;20300;-67
2023/07/11 01:53:08;;;;;;;2.30;1.65;;;;;;;-145.63;48.62;39073.13;5067491;28;20024;-68
2023/07/11 01:55:34;;;;;;;2.95;1.88;;;;;;;-145.63;48.43;39094.66;5075551;28;20025;-67
2023/07/11 01:57:59;;;;;;;2.15;1.80;;;;;;;-145.63;48.57;39102.47;5077115;28;20214;-68
2023/07/11 02:00:25;;;;;;;1.50;1.40;;;;;;;-145.63;48.58;39131.81;5065993;28;20044;-69
2023/07/11 02:02:51;;;;;;;3.95;1.98;;;;;;;-145.63;48.75;39122.03;5083909;28;20088;-69
2023/07/11 02:05:16;;;;;;;2.17;1.48;;;;;;;-145.63;49.05;39149.41;5066126;28;20276;-66
2023/07/11 02:07:42;;;;;;;2.17;1.55;;;;;;;-145.63;49.17;39114.22;5064118;28;20024;-68
2023/07/11 02:10:08;;;;;;;2.40;1.80;;;;;;;-145.63;48.91;39120.06;5064074;28;20037;-67
2023/07/11 02:12:34;;;;;;;1.83;1.60;;;;;;;-145.63;49.44;39170.91;5063622;28;20041;-67
2023/07/11 02:15:00;;;;;;;1.95;1.33;;;;;;;-145.63;49.27;39123.97;5064063;28;20040;-67
2023/07/11 02:17:26;;;;;;;1.33;1.20;;;;;;;-145.63;48.93;39096.59;5063620;28;20032;-67
2023/07/11 02:19:51;;;;;;;1.45;1.30;;;;;;;-145.63;49.22;39055.53;5077552;28;20029;-68
2023/07/11 02:22:17;;;;;;;1.75;1.38;;;;;;;-145.63;49.83;39108.34;5074180;28;20229;-68
2023/07/11 02:24:43;;;;;;;3.22;1.63;;;;;;;-145.63;49.75;39139.63;5063711;28;20096;-68
2023/07/11 02:27:09;;;;;;;3.05;1.50;;;;;;;-145.63;49.74;39122.03;5063245;28;20026;-66
2023/07/11 02:29:35;;;;;;;4.05;1.75;;;;;;;-145.63;50.09;39141.59;5076803;28;20044;-66
2023/07/11 02:32:01;;;;;;;1.85;1.60;;;;;;;-145.63;49.59;39125.94;5063088;28;20047;-66
2023/07/11 02:34:26;;;;;;;1.77;1.45;;;;;;;-145.63;49.63;39090.75;5063077;28;20088;-66
2023/07/11 02:36:52;;;;;;;1.58;1.40;;;;;;;-145.63;49.67;39122.03;5063315;28;20036;-66
2023/07/11 02:39:17;;;;;;;1.92;1.38;;;;;;;-145.63;50.01;39129.84;5064180;28;20333;-67
2023/07/11 02:41:43;;;;;;;7.07;1.67;;;;;;;-145.63;49.76;39125.94;5067485;28;20025;-68
2023/07/11 02:44:09;;;;;;;3.53;1.23;;;;;;;-145.63;49.55;39131.81;5078434;28;20033;-68
2023/07/11 02:46:35;;;;;;;2.88;1.40;;;;;;;-145.63;49.71;39086.81;5071812;28;20037;-67
2023/07/11 02:49:01;;;;;;;3.67;1.50;;;;;;;-145.63;49.76;39051.63;5061889;28;20029;-67
2023/07/11 02:51:27;;;;;;;2.75;1.70;;;;;;;-145.63;50.20;39110.28;5064847;28;20033;-67
2023/07/11 02:53:52;;;;;;;3.60;1.90;;;;;;;-145.63;49.40;39110.28;5083148;28;20028;-67
2023/07/11 02:56:19;;;;;;;3.28;1.67;;;;;;;-145.63;49.59;39110.28;5065763;28;20047;-67
2023/07/11 02:58:46;;;;;;;2.45;1.80;;;;;;;-145.63;49.34;39163.09;5075927;28;20020;-67
2023/07/11 03:01:13;;;;;;;2.33;1.67;;;;;;;-145.63;49.44;39112.25;5074883;28;20031;-68
2023/07/11 03:03:38;;;;;;;3.65;1.60;;;;;;;-145.63;49.39;39127.91;5066437;28;20024;-68
2023/07/11 03:06:04;;;;;;;2.20;1.35;;;;;;;-145.63;49.67;39098.56;5076814;28;20043;-68
2023/07/11 03:08:31;;;;;;;4.22;1.85;;;;;;;-145.63;49.21;39104.44;5081568;28;20037;-68
2023/07/11 03:10:58;;;;;;;2.30;1.50;;;;;;;-145.63;49.44;39086.81;5068676;28;20032;-68
2023/07/11 03:13:24;;;;;;;3.05;1.52;;;;;;;-145.63;49.53;39106.38;5062856;28;20033;-66
2023/07/11 03:15:49;;;;;;;3.08;1.65;;;;;;;-145.63;50.01;39122.03;5063052;28;20040;-67
2023/07/11 03:18:15;;;;;;;1.52;1.42;;;;;;;-145.63;50.18;39137.69;5062836;28;20033;-67
2023/07/11 03:20:42;;;;;;;2.60;1.65;;;;;;;-145.63;50.03;39129.84;5062908;28;20033;-66
2023/07/11 03:23:11;;;;;;;3.47;1.48;;;;;;;-145.63;50.28;39123.97;5078267;28;20325;-68
2023/07/11 03:25:37;;;;;;;3.90;1.25;;;;;;;-145.63;50.02;39137.69;5071557;28;20029;-67
2023/07/11 03:28:03;;;;;;;3.55;1.60;;;;;;;-145.63;49.68;39122.03;5069297;28;20122;-68
2023/07/11 03:30:30;;;;;;;1.73;1.63;;;;;;;-145.63;49.51;39120.06;5081053;28;20052;-68
2023/07/11 03:32:56;;;;;;;1.20;1.10;;;;;;;-145.63;49.84;39133.75;5062666;28;20028;-68
2023/07/11 03:35:21;;;;;;;2.08;1.40;;;;;;;-145.63;49.71;39116.16;5071621;28;20032;-67
2023/07/11 03:37:47;;;;;;;1.52;1.30;;;;;;;-145.63;49.62;39153.31;5062801;28;20055;-67
2023/07/11 03:40:12;;;;;;;1.40;1.30;;;;;;;-145.63;49.74;39139.63;5069770;28;20212;-67
2023/07/11 03:42:38;;;;;;;1.70;1.40;;;;;;;-145.63;49.59;39110.28;5069586;28;20343;-67
2023/07/11 03:45:04;;;;;;;1.75;1.10;;;;;;;-145.63;49.43;39149.41;5087043;28;20068;-66
2023/07/11 03:47:30;;;;;;;2.95;1.17;;;;;;;-145.63;49.21;39122.03;5067936;28;20032;-67
2023/07/11 03:49:56;;;;;;;1.20;1.10;;;;;;;-145.63;49.14;39127.91;5080476;28;20024;-66
2023/07/11 03:52:21;;;;;;;1.73;1.13;;;;;;;-145.63;48.85;39106.38;5077552;28;20020;-68
2023/07/11 03:54:47;;;;;;;4.45;1.90;;;;;;;-145.63;48.60;39168.97;5070476;28;20035;-68
2023/07/11 03:57:12;;;;;;;2.72;1.45;;;;;;;-145.63;48.29;39131.81;5085151;28;20037;-66
2023/07/11 03:59:38;;;;;;;1.80;1.20;;;;;;;-145.63;48.38;39129.84;5067027;28;20024;-67
2023/07/11 04:02:04;;;;;;;2.00;1.30;;;;;;;-145.63;48.34;39104.44;5080989;28;20309;-67
2023/07/11 04:04:29;;;;;;;2.78;1.45;;;;;;;-145.63;48.38;39145.50;5076349;28;20306;-67
2023/07/11 04:06:55;;;;;;;1.70;1.40;;;;;;;-145.63;48.20;39141.59;5070763;28;20033;-67
2023/07/11 04:09:20;;;;;;;2.00;1.23;;;;;;;-145.63;48.27;39123.97;5085641;28;20325;-66
2023/07/11 04:11:46;;;;;;;1.67;1.30;;;;;;;-145.63;47.70;39133.75;5066210;28;20098;-67
2023/07/11 04:14:11;;;;;;;2.90;1.20;;;;;;;-145.63;47.80;39131.81;5066051;28;20028;-69
2023/07/11 04:16:38;;;;;;;4.78;1.23;;;;;;;-145.63;48.10;39122.03;5065957;28;20048;-68
2023/07/11 04:19:04;;;;;;;2.15;1.00;;;;;;;-145.63;47.73;39104.44;5070987;28;20047;-69
2023/07/11 04:21:29;;;;;;;1.50;1.40;;;;;;;-145.63;47.60;39133.75;5076023;28;20025;-69
2023/07/11 04:23:55;;;;;;;1.95;1.02;;;;;;;-145.63;47.62;39090.75;5085966;28;20032;-68
2023/07/11 04:26:20;;;;;;;1.90;1.60;;;;;;;-145.63;47.54;39122.03;5069074;28;20028;-65
2023/07/11 04:28:46;;;;;;;1.40;1.00;;;;;;;-145.63;47.83;39102.47;5065885;28;20036;-66
2023/07/11 04:31:12;;;;;;;3.20;1.13;;;;;;;-145.63;47.17;39108.34;5072656;28;20028;-65
2023/07/11 04:33:38;;;;;;;3.13;1.00;;;;;;;-145.63;47.24;39102.47;5082390;28;20047;-66
2023/07/11 04:36:10;;;;;;;3.00;1.20;;;;;;;-145.63;47.57;39120.06;5065685;28;20493;-66
2023/07/11 04:38:36;;;;;;;4.03;1.90;;;;;;;-145.63;47.96;38998.81;5065609;28;20029;-65
2023/07/11 04:41:03;;;;;;;3.30;1.60;;;;;;;-145.63;47.33;39127.91;5065343;28;20066;-66
2023/07/11 04:43:29;;;;;;;1.60;1.40;;;;;;;-145.63;48.00;39123.97;5065431;28;20060;-65
2023/07/11 04:45:57;;;;;;;1.55;1.45;;;;;;;-145.63;48.14;39106.38;5070565;28;20028;-66
2023/07/11 04:48:24;;;;;;;1.92;1.10;;;;;;;-145.63;47.52;39059.44;5085075;28;20340;-67
2023/07/11 04:50:56;;;;;;;1.42;1.00;;;;;;;-145.63;47.55;39125.94;5064718;28;20035;-67
2023/07/11 04:53:21;;;;;;;3.22;1.20;;;;;;;-145.63;47.69;39110.28;5065093;28;20043;-66
2023/07/11 04:55:54;;;;;;;2.15;0.93;;;;;;;-145.63;47.62;39106.38;5077424;28;20028;-65
2023/07/11 04:58:19;;;;;;;1.13;0.90;;;;;;;-145.63;47.30;39127.91;5076957;28;20048;-67
2023/07/11 05:00:45;;;;;;;12.88;1.67;;;;;;;-145.63;47.34;39129.84;5068435;28;20036;-66
2023/07/11 05:03:11;;;;;;;17.85;2.50;;;;;;;-145.63;47.26;39137.69;5085064;28;20036;-66
2023/07/11 05:05:36;;;;;;;1.55;0.88;;;;;;;-145.63;47.49;39090.75;5066897;28;20072;-65
2023/07/11 05:08:02;;;;;;;1.35;1.10;;;;;;;-145.63;47.50;39125.94;5078944;28;20089;-66
2023/07/11 05:10:27;;;;;;;3.50;1.90;;;;;;;-145.63;47.50;39114.22;5084466;28;20052;-67
2023/07/11 05:12:53;;;;;;;2.50;1.48;;;;;;;-145.63;47.30;39133.75;5080714;28;20195;-68
2023/07/11 05:15:18;;;;;;;0.80;0.80;;;;;;;-145.63;46.98;39039.88;5064732;28;20044;-66
2023/07/11 05:17:44;;;;;;;1.85;1.10;;;;;;;-145.63;47.00;39065.31;5064904;28;20048;-66
2023/07/11 05:20:10;;;;;;;2.70;1.08;;;;;;;-145.63;46.76;39071.19;5079580;28;20028;-66
2023/07/11 05:22:36;;;;;;;1.42;0.80;;;;;;;-145.63;46.18;39100.50;5074797;28;20310;-66
2023/07/11 05:25:01;;;;;;;2.17;0.90;;;;;;;-145.63;46.10;39100.50;5069805;28;20142;-66
2023/07/11 05:27:27;;;;;;;1.10;1.00;;;;;;;-145.63;46.65;39106.38;5084189;28;20313;-68
2023/07/11 05:29:52;;;;;;;3.05;0.98;;;;;;;-145.63;46.50;39090.75;5064170;28;20028;-66
2023/07/11 05:32:18;;;;;;;0.82;0.82;;;;;;;-145.63;46.36;39090.75;5080271;28;20031;-68
2023/07/11 05:34:43;;;;;;;3.53;1.60;;;;;;;-145.63;46.29;39100.50;5073451;28;20070;-69
2023/07/11 05:37:09;;;;;;;1.23;1.10;;;;;;;-145.63;46.58;39100.50;5070567;28;20331;-69
2023/07/11 05:39:35;;;;;;;3.42;0.82;;;;;;;-145.63;46.44;39106.38;5082988;28;20090;-66
2023/07/11 05:42:01;;;;;;;4.30;1.20;;;;;;;-145.63;46.61;39051.63;5063912;28;20042;-66
2023/07/11 05:44:26;;;;;;;2.05;1.65;;;;;;;-145.63;45.78;39039.88;5080645;28;20028;-66
2023/07/11 05:46:52;;;;;;;1.17;1.08;;;;;;;-145.63;45.67;38963.63;5072171;28;20024;-68
2023/07/11 05:49:18;;;;;;;5.57;1.25;;;;;;;-145.63;45.54;39057.50;5071561;28;20031;-68
2023/07/11 05:51:43;;;;;;;3.80;1.20;;;;;;;-145.63;45.05;39045.75;5081901;28;20032;-67
2023/07/11 05:54:09;;;;;;;1.60;1.10;;;;;;;-145.63;45.13;39053.59;5063970;28;20029;-64
2023/07/11 05:56:35;;;;;;;28.70;2.53;;;;;;;-145.63;44.78;39090.75;5081773;28;20036;-66
2023/07/11 05:59:01;;;;;;;12.52;1.95;;;;;;;-145.63;45.15;39055.53;5069708;28;20056;-67
2023/07/11 06:01:28;;;;;;;3.05;1.13;;;;;;;-145.63;45.20;39100.50;5072100;28;20095;-66
2023/07/11 06:04:07;;;;;;;2.28;1.02;;;;;;;-145.63;45.30;39235.47;5078583;28;20025;-67
2023/07/11 06:06:35;;;;;;;2.25;1.10;;;;;;;-145.63;45.44;38805.22;5063703;28;20048;-65
2023/07/11 06:09:02;;;;;;;1.00;0.77;;;;;;;-145.63;45.49;39061.41;5063996;28;20045;-66
2023/07/11 06:11:27;;;;;;;1.38;1.00;;;;;;;-145.63;45.37;38848.25;5080448;28;20044;-69
2023/07/11 06:13:53;;;;;;;4.03;1.27;;;;;;;-145.63;45.87;39049.66;5071863;28;20194;-67
2023/07/11 06:16:18;;;;;;;1.67;0.98;;;;;;;-145.63;46.12;39063.34;5070700;28;20028;-65
2023/07/11 06:18:47;;;;;;;1.08;0.80;;;;;;;-145.63;45.66;39123.97;5081326;28;20059;-66
2023/07/11 06:21:13;;;;;;;3.85;0.90;;;;;;;-145.63;46.17;39090.75;5062345;28;20033;-67
2023/07/11 06:23:39;;;;;;;2.42;1.20;;;;;;;-145.63;46.24;39176.78;5063704;28;20029;-66
2023/07/11 06:26:05;;;;;;;3.70;1.23;;;;;;;-145.63;45.91;39053.59;5063625;28;20025;-64
2023/07/11 06:28:31;;;;;;;3.22;1.15;;;;;;;-145.63;45.14;39049.66;5072101;28;20027;-70
2023/07/11 06:31:00;;;;;;;4.07;1.00;;;;;;;-145.63;45.05;39041.84;5079425;28;20041;-65
2023/07/11 06:33:26;;;;;;;2.60;1.20;;;;;;;-145.63;44.74;39043.81;5063079;28;20040;-67
2023/07/11 06:35:52;;;;;;;2.60;1.08;;;;;;;-145.63;44.87;39079.00;5070210;28;20040;-67
2023/07/11 06:38:19;;;;;;;1.52;0.90;;;;;;;-145.63;45.22;39035.97;5078281;28;20024;-66
2023/07/11 06:40:49;;;;;;;2.42;0.98;;;;;;;-145.63;45.07;39061.41;5068359;28;20029;-65
2023/07/11 06:43:16;;;;;;;7.32;1.35;;;;;;;-145.63;45.44;39057.50;5069507;28;20043;-66
2023/07/11 06:45:41;;;;;;;1.45;1.20;;;;;;;-145.63;45.56;39037.94;5081401;28;20035;-66
2023/07/11 06:48:07;;;;;;;2.75;1.10;;;;;;;-145.63;45.60;39024.25;5062206;28;20029;-66
2023/07/11 06:50:34;;;;;;;3.20;1.20;;;;;;;-145.63;45.59;39053.59;5059376;28;20037;-65
2023/07/11 06:52:59;;;;;;;2.90;1.15;;;;;;;-145.63;45.19;38965.56;5054229;28;20165;-66
2023/07/11 06:55:25;;;;;;;4.03;1.20;;;;;;;-145.63;45.11;38969.50;5055468;28;20038;-65
2023/07/11 06:57:51;;;;;;;2.40;1.15;;;;;;;-145.63;45.05;38992.97;5065064;28;20033;-65
2023/07/11 07:00:17;;;;;;;3.42;1.75;;;;;;;-145.63;44.90;39008.59;5081617;28;20113;-66
2023/07/11 07:02:43;;;;;;;3.65;1.30;;;;;;;-145.63;44.93;38992.97;5064430;28;20092;-66
2023/07/11 07:05:08;;;;;;;1.95;1.05;;;;;;;-145.63;44.90;39051.63;5076561;28;20032;-66
2023/07/11 07:07:34;;;;;;;1.58;1.20;;;;;;;-145.63;45.05;39090.75;5074223;28;20017;-67
2023/07/11 07:10:00;;;;;;;3.15;1.65;;;;;;;-145.63;45.22;39039.88;5060325;28;20534;-67
2023/07/11 07:12:25;;;;;;;2.42;1.50;;;;;;;-145.63;45.24;39008.59;5053448;28;20029;-66
2023/07/11 07:14:51;;;;;;;3.00;1.15;;;;;;;-145.63;44.98;39004.69;5048077;28;20036;-66
2023/07/11 07:17:16;;;;;;;1.90;1.17;;;;;;;-145.63;45.73;39039.88;5058003;28;20033;-66
2023/07/11 07:19:43;;;;;;;2.67;1.33;;;;;;;-145.63;45.79;39014.47;5047499;28;20044;-66
2023/07/11 07:22:09;;;;;;;3.85;1.10;;;;;;;-145.63;44.88;39047.72;5062252;28;20020;-67
2023/07/11 07:24:34;;;;;;;2.40;2.08;;;;;;;-145.63;44.84;39055.53;5063069;28;20214;-67
2023/07/11 07:27:01;;;;;;;4.40;2.53;;;;;;;-145.63;44.75;39061.41;5070877;28;20083;-68
2023/07/11 07:29:27;;;;;;;1.75;1.17;;;;;;;-145.63;45.26;39008.59;5062018;28;20033;-68
2023/07/11 07:31:52;;;;;;;2.40;1.17;;;;;;;-145.63;44.63;39043.81;5072950;28;20024;-67
2023/07/11 07:34:18;;;;;;;3.65;1.20;;;;;;;-145.63;44.42;38992.97;5078533;28;20037;-66
2023/07/11 07:36:44;;;;;;;3.20;1.27;;;;;;;-145.63;44.68;39024.25;5063869;28;20127;-66
2023/07/11 07:39:09;;;;;;;3.90;1.23;;;;;;;-145.63;44.68;38996.88;5062678;28;20032;-66
2023/07/11 07:41:35;;;;;;;4.88;1.20;;;;;;;-145.63;44.82;38992.97;5069773;28;20047;-66
2023/07/11 07:44:00;;;;;;;3.53;1.15;;;;;;;-145.63;44.75;39000.78;5062514;28;20043;-67
2023/07/11 07:46:26;;;;;;;0.98;0.98;;;;;;;-145.63;44.23;38805.22;5061353;28;20029;-66
2023/07/11 07:48:53;;;;;;;2.10;1.00;;;;;;;-145.63;44.29;38987.09;5065182;28;20091;-68
2023/07/11 07:51:19;;;;;;;1.00;0.90;;;;;;;-145.63;44.08;39010.56;5073087;28;20032;-68
2023/07/11 07:53:45;;;;;;;4.30;1.05;;;;;;;-145.63;44.14;38989.03;5062734;28;20301;-65
2023/07/11 07:56:20;;;;;;;2.83;1.40;;;;;;;-145.63;44.54;38996.88;5062285;28;20033;-66
2023/07/11 07:58:45;;;;;;;2.80;1.17;;;;;;;-145.63;43.95;38977.31;5063297;28;20052;-66
2023/07/11 08:01:13;;;;;;;2.33;1.15;;;;;;;-145.63;43.84;38996.88;5064677;28;20074;-66
2023/07/11 08:03:40;;;;;;;3.55;1.15;;;;;;;-145.63;43.84;38969.50;5063176;28;20028;-67
2023/07/11 08:06:06;;;;;;;3.30;1.08;;;;;;;-145.63;43.89;38953.84;5074950;28;20059;-64
2023/07/11 08:08:32;;;;;;;1.55;1.08;;;;;;;-145.63;44.22;39004.69;5062671;28;20028;-67
2023/07/11 08:11:01;;;;;;;3.55;1.40;;;;;;;-145.63;44.26;39024.25;5067017;28;20040;-64
2023/07/11 08:13:28;;;;;;;2.35;1.30;;;;;;;-145.63;44.27;38992.97;5062179;28;20340;-67
2023/07/11 08:15:53;;;;;;;5.25;1.30;;;;;;;-145.63;44.63;38992.97;5062377;28;20040;-66
2023/07/11 08:18:19;;;;;;;2.63;1.00;;;;;;;-145.63;44.69;38987.09;5062385;28;20032;-66
2023/07/11 08:20:45;;;;;;;1.30;1.00;;;;;;;-145.63;44.38;38983.19;5075451;28;20061;-65
2023/07/11 08:23:10;;;;;;;1.58;1.48;;;;;;;-145.63;44.43;39008.59;5061903;28;20226;-72
2023/07/11 08:25:36;;;;;;;2.92;1.00;;;;;;;-145.63;43.94;38946.03;5062365;28;20064;-70
2023/07/11 08:28:05;;;;;;;3.63;1.08;;;;;;;-145.63;43.51;38930.38;5064558;28;20055;-70
2023/07/11 08:30:35;;;;;;;1.20;1.10;;;;;;;-145.63;43.43;38920.59;5065712;28;20078;-67
2023/07/11 08:33:01;;;;;;;2.05;1.20;;;;;;;-145.63;43.22;38949.94;5086019;28;20032;-68
2023/07/11 08:35:27;;;;;;;1.73;1.33;;;;;;;-145.63;43.66;38959.72;5070478;28;20029;-67
2023/07/11 08:37:52;;;;;;;1.10;0.95;;;;;;;-145.63;42.99;38926.47;5076047;28;20063;-68
2023/07/11 08:40:22;;;;;;;2.10;0.90;;;;;;;-145.63;43.43;38899.09;5076517;28;20036;-67
2023/07/11 08:42:48;;;;;;;3.78;0.98;;;;;;;-145.63;42.73;38910.81;5067048;28;20017;-68
2023/07/11 08:45:24;;;;;;;1.20;1.00;;;;;;;-145.63;42.89;39051.63;5085634;28;20045;-67
2023/07/11 08:48:01;;;;;;;1.05;0.80;;;;;;;-145.63;43.24;38918.66;5067139;28;20179;-68
2023/07/11 08:50:36;;;;;;;1.20;0.95;;;;;;;-145.63;42.69;38920.59;5079288;28;20040;-67
2023/07/11 08:53:13;;;;;;;1.85;1.00;;;;;;;-145.63;43.04;38895.19;5073730;28;20088;-66
2023/07/11 08:55:44;;;;;;;2.70;1.15;;;;;;;-145.63;43.21;38891.28;5073998;28;20313;-67
2023/07/11 08:58:24;;;;;;;1.63;0.95;;;;;;;-145.63;42.54;38873.66;5080841;28;20028;-67
2023/07/11 09:00:50;;;;;;;2.30;0.98;;;;;;;-145.63;42.66;38875.63;5064753;28;20025;-68
2023/07/11 09:03:30;;;;;;;2.50;0.90;;;;;;;-145.63;41.38;38588.16;5064956;28;20032;-66
2023/07/11 09:06:07;;;;;;;3.80;1.10;;;;;;;-145.63;42.05;38910.81;5084139;28;20027;-66
2023/07/11 09:08:38;;;;;;;1.77;1.13;;;;;;;-145.63;41.15;38883.44;5067960;28;20214;-66
2023/07/11 09:11:14;;;;;;;2.63;0.95;;;;;;;-145.63;41.36;38838.47;5076573;28;20036;-65
2023/07/11 09:13:51;;;;;;;1.45;1.00;;;;;;;-145.63;41.46;38856.06;5076453;28;20348;-66
2023/07/11 09:16:36;;;;;;;1.98;1.00;;;;;;;-145.63;41.37;38820.88;5069788;28;20052;-67
2023/07/11 09:19:30;;;;;;;1.13;1.00;;;;;;;-145.63;41.22;38797.41;5081842;28;20025;-67
2023/07/11 09:22:02;;;;;;;1.65;0.85;;;;;;;-145.63;40.84;38807.19;5063996;28;20047;-67
2023/07/11 09:24:43;;;;;;;;;;;;;;;-145.63;41.40;38899.09;5066692;28;20092;-67
2023/07/11 09:27:15;;;;;;;3.45;1.30;;;;;;;-145.63;40.60;38912.78;5060184;28;19929;-67
2023/07/11 09:29:42;;;;;;;;;;;;;;;-145.63;40.83;38903.00;5063223;28;20032;-68
2023/07/11 09:32:11;;;;;;;0.98;0.90;;;;;;;-145.63;41.19;38283.16;5076878;28;19904;-68
2023/07/11 09:34:41;;;;;;;2.47;1.20;;;;;;;-145.63;40.48;38906.91;5076349;28;20209;-75
2023/07/11 09:37:37;;;;;;;2.13;0.88;;;;;;;-145.63;40.60;38883.44;5067937;28;20043;-69
2023/07/11 09:40:18;;;;;;;2.70;1.00;;;;;;;-145.63;40.53;38899.09;5081370;28;20032;-68
2023/07/11 09:42:51;;;;;;;2.00;0.85;;;;;;;-145.63;40.85;38889.31;5045670;28;20314;-68
2023/07/11 09:45:23;;;;;;;2.35;1.00;;;;;;;-145.63;41.67;38899.09;5084432;28;20101;-69
2023/07/11 09:48:03;;;;;;;1.15;1.00;;;;;;;-145.63;41.06;38891.28;5066107;28;20041;-68
2023/07/11 09:50:31;;;;;;;2.90;1.00;;;;;;;-145.63;41.48;38922.56;5078934;28;20035;-69
2023/07/11 09:53:00;;;;;;;1.95;0.95;;;;;;;-145.63;41.02;38926.47;5073562;28;20087;-71
2023/07/11 09:55:30;;;;;;;2.50;1.17;;;;;;;-145.63;41.37;38949.94;5068745;28;20062;-69
2023/07/11 09:57:56;;;;;;;1.45;1.25;;;;;;;-145.63;41.65;38914.72;5081596;28;20047;-69
2023/07/11 10:00:22;;;;;;;2.35;0.93;;;;;;;-145.63;41.96;38879.53;5070040;28;20086;-69
2023/07/11 10:02:48;;;;;;;3.05;1.00;;;;;;;-145.63;41.45;38922.56;5081589;28;20028;-70
2023/07/11 10:05:17;;;;;;;3.05;1.17;;;;;;;-145.63;41.57;38494.31;5071088;28;20068;-66
2023/07/11 10:07:43;;;;;;;3.25;1.15;;;;;;;-145.63;41.33;38824.78;5072342;28;20024;-68
2023/07/11 10:10:16;;;;;;;3.00;1.20;;;;;;;-145.63;41.01;38934.28;5062344;28;20140;-67
2023/07/11 10:12:43;;;;;;;2.40;1.20;;;;;;;-145.63;40.88;38877.56;5064197;28;20049;-68
2023/07/11 10:15:18;;;;;;;1.10;0.90;;;;;;;-145.63;41.30;38856.06;5044527;28;20057;-68
2023/07/11 10:17:44;;;;;;;2.72;1.45;;;;;;;-145.63;41.12;38822.81;5078243;28;20035;-69
2023/07/11 10:20:20;;;;;;;2.63;1.00;;;;;;;-145.63;41.00;38916.69;5072074;28;20056;-68
2023/07/11 10:22:52;;;;;;;1.70;0.90;;;;;;;-145.63;41.33;38942.13;5072623;28;20024;-67
2023/07/11 10:25:20;;;;;;;1.27;0.80;;;;;;;-145.63;41.78;38721.13;5078945;28;20036;-68
2023/07/11 10:28:02;;;;;;;1.15;1.05;;;;;;;-145.63;42.33;38899.09;5063997;28;20337;-69
2023/07/11 10:30:31;;;;;;;3.17;1.70;;;;;;;-145.63;42.09;38895.19;5083912;28;20039;-70
2023/07/11 10:33:13;;;;;;;2.20;1.13;;;;;;;-145.63;41.94;38838.47;5065472;28;20075;-70
2023/07/11 10:35:40;;;;;;;1.52;1.00;;;;;;;-145.63;42.56;38859.97;5068401;28;20341;-70
2023/07/11 10:38:29;;;;;;;1.20;1.00;;;;;;;-145.63;42.37;38856.06;5075051;28;20039;-71
2023/07/11 10:41:00;;;;;;;1.35;1.25;;;;;;;-145.63;41.96;38906.91;5074670;28;20036;-70
2023/07/11 10:43:29;;;;;;;4.47;1.38;;;;;;;-145.63;43.01;38881.50;5068381;28;20052;-70
2023/07/11 10:46:04;;;;;;;10.30;1.70;;;;;;;-145.63;43.55;38488.44;5082429;28;20036;-70
2023/07/11 10:48:32;;;;;;;2.50;1.10;;;;;;;-145.63;46.72;38961.66;5062716;28;20449;-70
2023/07/11 10:51:17;;;;;;;6.78;1.80;;;;;;;-145.63;49.76;38963.63;5081727;28;20043;-70
2023/07/11 10:53:55;;;;;;;3.60;1.10;;;;;;;-145.63;47.99;38992.97;5066847;28;20101;-69
2023/07/11 10:56:27;;;;;;;3.65;1.17;;;;;;;-145.63;49.34;38983.19;5075185;28;20059;-69
2023/07/11 10:58:57;;;;;;;2.80;1.08;;;;;;;-145.63;50.10;38957.75;5074033;28;20038;-69
2023/07/11 11:01:42;;;;;;;2.33;1.15;;;;;;;-145.63;50.16;39014.47;5062966;28;20037;-69
2023/07/11 11:04:24;;;;;;;2.55;1.00;;;;;;;-145.63;50.50;39035.97;5065984;28;20059;-67
2023/07/11 11:06:56;;;;;;;2.78;1.20;;;;;;;-145.63;51.44;39012.50;5082600;28;20028;-69
2023/07/11 11:09:40;;;;;;;2.05;1.20;;;;;;;-145.63;52.31;39024.25;5063005;28;20279;-69
2023/07/11 11:12:40;;;;;;;2.88;1.60;;;;;;;-145.63;52.32;38991.00;5064664;28;20064;-68
2023/07/11 11:15:51;;;;;;;3.13;1.50;;;;;;;-145.63;51.10;38965.56;5063813;28;20059;-69
2023/07/11 11:18:39;;;;;;;1.48;1.17;;;;;;;-145.63;51.33;39004.69;5042928;28;20038;-69
2023/07/11 11:21:20;;;;;;;1.52;1.20;;;;;;;-145.63;51.13;38967.53;5062560;28;20221;-69